Time;durP1;ratioP1;P1;durP2;ratioP2;P2;SDS_P1;SDS_P2;PMS_P1;PMS_P2;Temp;Humidity;BMP_temperature;BMP_pressure;BME280_temperature;BME280_humidity;BME280_pressure;Samples;Min_cycle;Max_cycle;Signal;HPM_P1;HPM_P2
2021/07/23 00:01:16;;;;;;;;;;;18.40;99.90;;;;;;5043421;28;19925;-89
2021/07/23 00:03:42;;;;;;;;;;;18.30;99.90;;;;;;5051892;28;19999;-90
2021/07/23 00:06:07;;;;;;;;;;;18.40;99.90;;;;;;5032889;28;20007;-89
2021/07/23 00:08:33;;;;;;;;;;;18.30;99.90;;;;;;5032599;28;19932;-90
2021/07/23 00:10:59;;;;;;;;;;;18.20;99.90;;;;;;5035236;28;20025;-90
2021/07/23 00:13:24;;;;;;;;;;;18.30;99.90;;;;;;5050500;28;20406;-90
2021/07/23 00:15:50;;;;;;;;;;;18.30;99.90;;;;;;5035485;28;20561;-89
2021/07/23 00:18:17;;;;;;;;;;;18.20;99.90;;;;;;5056625;28;19925;-87
2021/07/23 00:20:42;;;;;;;;;;;18.20;99.90;;;;;;5024110;28;20179;-85
2021/07/23 00:23:08;;;;;;;;;;;18.20;99.90;;;;;;5044825;28;19955;-85
2021/07/23 00:25:35;;;;;;;;;;;18.20;99.90;;;;;;5057410;28;20783;-85
2021/07/23 00:28:01;;;;;;;;;;;18.20;99.90;;;;;;5035915;28;20043;-85
2021/07/23 00:30:27;;;;;;;;;;;18.20;99.90;;;;;;5053453;28;20016;-85
2021/07/23 00:32:52;;;;;;;;;;;18.30;99.90;;;;;;5059561;28;19974;-85
2021/07/23 00:35:18;;;;;;;;;;;18.30;99.90;;;;;;5025146;28;19990;-85
2021/07/23 00:37:44;;;;;;;;;;;18.40;99.90;;;;;;5023099;28;19927;-86
2021/07/23 00:40:10;;;;;;;;;;;18.40;99.90;;;;;;5057481;28;20015;-85
2021/07/23 00:42:39;;;;;;;;;;;18.50;99.90;;;;;;5029159;28;19929;-85
2021/07/23 00:45:05;;;;;;;;;;;18.50;99.90;;;;;;5062151;28;20044;-84
2021/07/23 00:47:31;;;;;;;;;;;18.50;99.90;;;;;;5036413;28;19924;-85
2021/07/23 00:49:58;;;;;;;;;;;18.50;99.90;;;;;;5040085;28;19929;-85
2021/07/23 00:52:24;;;;;;;;;;;18.50;99.90;;;;;;5070600;28;19963;-85
2021/07/23 00:54:49;;;;;;;;;;;18.50;99.90;;;;;;5061981;28;19964;-85
2021/07/23 00:57:15;;;;;;;;;;;18.50;99.90;;;;;;5053567;28;20429;-84
2021/07/23 00:59:41;;;;;;;;;;;18.40;99.90;;;;;;5026368;28;19987;-85
2021/07/23 01:02:07;;;;;;;;;;;18.40;99.90;;;;;;5040210;28;19924;-85
2021/07/23 01:04:34;;;;;;;;;;;18.30;99.90;;;;;;5050826;28;19924;-85
2021/07/23 01:06:59;;;;;;;;;;;18.20;99.90;;;;;;5057603;28;19986;-85
2021/07/23 01:09:25;;;;;;;;;;;18.20;99.90;;;;;;5061120;28;20396;-85
2021/07/23 01:11:51;;;;;;;;;;;18.10;99.90;;;;;;5062651;28;19935;-85
2021/07/23 01:14:17;;;;;;;;;;;18.10;99.90;;;;;;5061372;28;20054;-85
2021/07/23 01:16:44;;;;;;;;;;;18.10;99.90;;;;;;5042529;28;20023;-85
2021/07/23 01:19:10;;;;;;;;;;;18.10;99.90;;;;;;5062594;28;19931;-85
2021/07/23 01:21:37;;;;;;;;;;;18.10;99.90;;;;;;5007241;28;19920;-85
2021/07/23 01:24:03;;;;;;;;;;;18.20;99.90;;;;;;5042437;28;19982;-84
2021/07/23 01:26:29;;;;;;;;;;;18.20;99.90;;;;;;5062652;28;19924;-84
2021/07/23 01:28:54;;;;;;;;;;;18.30;99.90;;;;;;5046969;28;20345;-86
2021/07/23 01:31:20;;;;;;;;;;;18.30;99.90;;;;;;5041165;28;19925;-86
2021/07/23 01:33:46;;;;;;;;;;;18.30;99.90;;;;;;5031345;28;19924;-85
2021/07/23 01:36:12;;;;;;;;;;;18.40;99.90;;;;;;5025918;28;20450;-85
2021/07/23 01:38:39;;;;;;;;;;;18.30;99.90;;;;;;5041046;28;19929;-84
2021/07/23 01:41:06;;;;;;;;;;;18.30;99.90;;;;;;5044002;28;19921;-85
2021/07/23 01:43:32;;;;;;;;;;;18.30;99.90;;;;;;5028342;28;20363;-85
2021/07/23 01:45:59;;;;;;;;;;;18.30;99.90;;;;;;5063141;28;19948;-84
2021/07/23 01:48:25;;;;;;;;;;;18.30;99.90;;;;;;5043184;28;19928;-85
2021/07/23 01:50:51;;;;;;;;;;;18.30;99.90;;;;;;5041597;28;19928;-85
2021/07/23 01:53:16;;;;;;;;;;;18.30;99.90;;;;;;5057704;28;19920;-84
2021/07/23 01:55:43;;;;;;;;;;;18.20;99.90;;;;;;5058377;28;20460;-85
2021/07/23 01:58:11;;;;;;;;;;;18.20;99.90;;;;;;5024075;28;19920;-85
2021/07/23 02:00:37;;;;;;;;;;;18.20;99.90;;;;;;5044514;28;20339;-85
2021/07/23 02:03:03;;;;;;;;;;;18.20;99.90;;;;;;5076806;28;19928;-85
2021/07/23 02:05:29;;;;;;;;;;;18.20;99.90;;;;;;5057470;28;19997;-84
2021/07/23 02:07:54;;;;;;;;;;;18.20;99.90;;;;;;5078118;28;20742;-85
2021/07/23 02:10:20;;;;;;;;;;;18.20;99.90;;;;;;5058673;28;20405;-84
2021/07/23 02:12:46;;;;;;;;;;;18.20;99.90;;;;;;5037829;28;19928;-85
2021/07/23 02:15:11;;;;;;;;;;;18.30;99.90;;;;;;5040026;28;20023;-86
2021/07/23 02:17:37;;;;;;;;;;;18.30;99.90;;;;;;5023212;28;20739;-85
2021/07/23 02:20:03;;;;;;;;;;;18.30;99.90;;;;;;5024043;28;19929;-86
2021/07/23 02:22:29;;;;;;;;;;;18.30;99.90;;;;;;5039902;28;20375;-85
2021/07/23 02:24:55;;;;;;;;;;;18.40;99.90;;;;;;5024413;28;20428;-86
2021/07/23 02:27:20;;;;;;;;;;;18.30;99.90;;;;;;5024633;28;19921;-86
2021/07/23 02:29:46;;;;;;;;;;;18.30;99.90;;;;;;5011622;28;19929;-85
2021/07/23 02:32:12;;;;;;;;;;;18.30;99.90;;;;;;5059286;28;19946;-84
2021/07/23 02:34:38;;;;;;;;;;;18.30;99.90;;;;;;5047371;28;19925;-84
2021/07/23 02:37:03;;;;;;;;;;;18.20;99.90;;;;;;5055874;28;19970;-85
2021/07/23 02:39:29;;;;;;;;;;;18.20;99.90;;;;;;5057568;28;20454;-85
2021/07/23 02:41:55;;;;;;;;;;;18.20;99.90;;;;;;5038617;28;20039;-85
2021/07/23 02:44:20;;;;;;;;;;;18.30;99.90;;;;;;5021399;28;19925;-85
2021/07/23 02:46:46;;;;;;;;;;;18.30;99.90;;;;;;5012605;28;19925;-85
2021/07/23 02:49:12;;;;;;;;;;;18.30;99.90;;;;;;5047521;28;19928;-85
2021/07/23 02:51:37;;;;;;;;;;;18.30;99.90;;;;;;5059893;28;19924;-86
2021/07/23 02:54:03;;;;;;;;;;;18.20;99.90;;;;;;5024504;28;19925;-85
2021/07/23 02:56:29;;;;;;;;;;;18.20;99.90;;;;;;5021878;28;20468;-85
2021/07/23 02:58:54;;;;;;;;;;;18.20;99.90;;;;;;5042555;28;20016;-85
2021/07/23 03:01:20;;;;;;;;;;;18.20;99.90;;;;;;5026385;28;20016;-85
2021/07/23 03:03:46;;;;;;;;;;;18.20;99.90;;;;;;5023602;28;20407;-85
2021/07/23 03:06:16;;;;;;;;;;;18.20;99.90;;;;;;5037448;28;20023;-84
2021/07/23 03:08:43;;;;;;;;;;;18.20;99.90;;;;;;5043156;28;20907;-85
2021/07/23 03:11:08;;;;;;;;;;;18.30;99.90;;;;;;5056133;28;19925;-84
2021/07/23 03:13:34;;;;;;;;;;;18.20;99.90;;;;;;5074812;28;20409;-86
2021/07/23 03:16:00;;;;;;;;;;;18.20;99.90;;;;;;5007853;28;19921;-85
2021/07/23 03:18:25;;;;;;;;;;;18.20;99.90;;;;;;5037626;28;20291;-85
2021/07/23 03:20:52;;;;;;;;;;;18.20;99.90;;;;;;5042342;28;20685;-85
2021/07/23 03:23:18;;;;;;;;;;;18.10;99.90;;;;;;5070319;28;19925;-85
2021/07/23 03:25:43;;;;;;;;;;;18.10;99.90;;;;;;5014826;28;20386;-84
2021/07/23 03:28:09;;;;;;;;;;;18.20;99.90;;;;;;5030294;28;19925;-85
2021/07/23 03:30:35;;;;;;;;;;;18.20;99.90;;;;;;5029223;28;19925;-85
2021/07/23 03:33:01;;;;;;;;;;;18.20;99.90;;;;;;5031199;28;19924;-85
2021/07/23 03:35:27;;;;;;;;;;;18.10;99.90;;;;;;5048381;28;20041;-85
2021/07/23 03:37:53;;;;;;;;;;;18.20;99.90;;;;;;5033105;28;19926;-86
2021/07/23 03:40:18;;;;;;;;;;;18.10;99.90;;;;;;5035254;28;19929;-84
2021/07/23 03:42:44;;;;;;;;;;;18.10;99.90;;;;;;5033324;28;19925;-85
2021/07/23 03:45:10;;;;;;;;;;;18.20;99.90;;;;;;5023990;28;20627;-86
2021/07/23 03:47:35;;;;;;;;;;;18.10;99.90;;;;;;5050305;28;19921;-85
2021/07/23 03:50:13;;;;;;;;;;;18.10;99.90;;;;;;5047011;28;19929;-84
2021/07/23 03:52:39;;;;;;;;;;;18.10;99.90;;;;;;5049792;28;19924;-85
2021/07/23 03:55:05;;;;;;;;;;;18.00;99.90;;;;;;5031202;28;19959;-85
2021/07/23 03:57:30;;;;;;;;;;;18.00;99.90;;;;;;5045214;28;19924;-85
2021/07/23 03:59:56;;;;;;;;;;;18.00;99.90;;;;;;5051549;28;19920;-85
2021/07/23 04:02:22;;;;;;;;;;;18.00;99.90;;;;;;5032478;28;19975;-85
2021/07/23 04:04:48;;;;;;;;;;;18.00;99.90;;;;;;5050185;28;19960;-85
2021/07/23 04:07:13;;;;;;;;;;;18.00;99.90;;;;;;5029786;28;19931;-86
2021/07/23 04:09:39;;;;;;;;;;;18.00;99.90;;;;;;5029594;28;20015;-85
2021/07/23 04:12:05;;;;;;;;;;;17.90;99.90;;;;;;5039469;28;19924;-85
2021/07/23 04:14:32;;;;;;;;;;;17.80;99.90;;;;;;5048419;28;19921;-84
2021/07/23 04:16:58;;;;;;;;;;;17.80;99.90;;;;;;5025955;28;20394;-85
2021/07/23 04:19:24;;;;;;;;;;;17.80;99.90;;;;;;5033429;28;19931;-85
2021/07/23 04:21:50;;;;;;;;;;;17.90;99.90;;;;;;5032787;28;20366;-87
2021/07/23 04:24:16;;;;;;;;;;;17.90;99.90;;;;;;5040854;28;20011;-85
2021/07/23 04:26:41;;;;;;;;;;;17.90;99.90;;;;;;5028038;28;19924;-85
2021/07/23 04:29:07;;;;;;;;;;;17.80;99.90;;;;;;5021734;28;19983;-85
2021/07/23 04:31:33;;;;;;;;;;;17.90;99.90;;;;;;5023533;28;20299;-86
2021/07/23 04:33:59;;;;;;;;;;;17.90;99.90;;;;;;5025338;28;19974;-85
2021/07/23 04:36:25;;;;;;;;;;;17.90;99.90;;;;;;5036130;28;19975;-84
2021/07/23 04:38:51;;;;;;;;;;;17.90;99.90;;;;;;5060027;28;19928;-85
2021/07/23 04:41:17;;;;;;;;;;;18.00;99.90;;;;;;5027514;28;19972;-85
2021/07/23 04:43:43;;;;;;;;;;;18.00;99.90;;;;;;5032881;28;19928;-84
2021/07/23 04:46:09;;;;;;;;;;;18.00;99.90;;;;;;5047477;28;19927;-84
2021/07/23 04:48:35;;;;;;;;;;;18.00;99.90;;;;;;5054061;28;20391;-85
2021/07/23 04:51:01;;;;;;;;;;;18.00;99.90;;;;;;5051315;28;19927;-84
2021/07/23 04:53:30;;;;;;;;;;;18.10;99.90;;;;;;5035321;28;19930;-84
2021/07/23 04:55:59;;;;;;;;;;;18.00;99.90;;;;;;5033522;28;20386;-85
2021/07/23 04:58:25;;;;;;;;;;;18.00;99.90;;;;;;5031662;28;19967;-85
2021/07/23 05:00:53;;;;;;;;;;;18.00;99.90;;;;;;5047823;28;19987;-85
2021/07/23 05:03:20;;;;;;;;;;;18.00;99.90;;;;;;5030069;28;19964;-85
2021/07/23 05:05:46;;;;;;;;;;;18.00;99.90;;;;;;5043284;28;19931;-86
2021/07/23 05:08:12;;;;;;;;;;;17.90;99.90;;;;;;5017631;28;20376;-85
2021/07/23 05:10:40;;;;;;;;;;;17.90;99.90;;;;;;5032447;28;20302;-84
2021/07/23 05:13:06;;;;;;;;;;;17.90;99.90;;;;;;5011795;28;20358;-86
2021/07/23 05:15:33;;;;;;;;;;;17.80;99.90;;;;;;5033996;28;19925;-85
2021/07/23 05:18:00;;;;;;;;;;;17.80;99.90;;;;;;5035000;28;19924;-85
2021/07/23 05:20:26;;;;;;;;;;;17.80;99.90;;;;;;5031018;28;19925;-85
2021/07/23 05:22:52;;;;;;;;;;;17.80;99.90;;;;;;5034156;28;19939;-86
2021/07/23 05:25:18;;;;;;;;;;;17.80;99.90;;;;;;5012489;28;19925;-85
2021/07/23 05:27:44;;;;;;;;;;;17.80;99.90;;;;;;5032984;28;19927;-85
2021/07/23 05:30:10;;;;;;;;;;;17.80;99.90;;;;;;5034307;28;19927;-86
2021/07/23 05:32:35;;;;;;;;;;;17.80;99.90;;;;;;5034435;28;19978;-85
2021/07/23 05:35:01;;;;;;;;;;;17.80;99.90;;;;;;5039887;28;20058;-84
2021/07/23 05:37:27;;;;;;;;;;;17.80;99.90;;;;;;5049405;28;19954;-86
2021/07/23 05:39:52;;;;;;;;;;;17.80;99.90;;;;;;5044330;28;19962;-84
2021/07/23 05:42:18;;;;;;;;;;;17.80;99.90;;;;;;5001656;28;20302;-85
2021/07/23 05:44:44;;;;;;;;;;;17.70;99.90;;;;;;5036441;28;19927;-84
2021/07/23 05:47:10;;;;;;;;;;;17.70;99.90;;;;;;5032203;28;19931;-85
2021/07/23 05:49:35;;;;;;;;;;;17.70;99.90;;;;;;5031701;28;19932;-85
2021/07/23 05:52:01;;;;;;;;;;;17.70;99.90;;;;;;5018385;28;19940;-85
2021/07/23 05:54:27;;;;;;;;;;;17.70;99.90;;;;;;5033294;28;19928;-86
2021/07/23 05:56:53;;;;;;;;;;;17.70;99.90;;;;;;5029236;28;19936;-86
2021/07/23 05:59:19;;;;;;;;;;;17.70;99.90;;;;;;5039306;28;20188;-85
2021/07/23 06:01:45;;;;;;;;;;;17.60;99.90;;;;;;5049946;28;20011;-86
2021/07/23 06:04:10;;;;;;;;;;;17.70;99.90;;;;;;5017138;28;20376;-85
2021/07/23 06:06:36;;;;;;;;;;;17.70;99.90;;;;;;5050026;28;19944;-85
2021/07/23 06:09:02;;;;;;;;;;;17.70;99.90;;;;;;5026229;28;19967;-84
2021/07/23 06:11:28;;;;;;;;;;;17.70;99.90;;;;;;5051813;28;19968;-85
2021/07/23 06:13:53;;;;;;;;;;;17.80;99.90;;;;;;5030575;28;20426;-85
2021/07/23 06:16:19;;;;;;;;;;;17.80;99.90;;;;;;5022536;28;19924;-84
2021/07/23 06:18:45;;;;;;;;;;;17.70;99.90;;;;;;5049153;28;19931;-86
2021/07/23 06:21:10;;;;;;;;;;;17.70;99.90;;;;;;5043573;28;19943;-86
2021/07/23 06:23:37;;;;;;;;;;;17.70;99.90;;;;;;5049430;28;19925;-86
2021/07/23 06:26:03;;;;;;;;;;;17.70;99.90;;;;;;5005690;28;19925;-85
2021/07/23 06:28:29;;;;;;;;;;;17.80;99.90;;;;;;5036040;28;19928;-84
2021/07/23 06:30:59;;;;;;;;;;;17.80;99.90;;;;;;5049812;28;19975;-85
2021/07/23 06:33:24;;;;;;;;;;;17.80;99.90;;;;;;5029123;28;20459;-85
2021/07/23 06:35:50;;;;;;;;;;;17.90;99.90;;;;;;5030461;28;20024;-84
2021/07/23 06:38:16;;;;;;;;;;;17.90;99.90;;;;;;5015576;28;19944;-85
2021/07/23 06:40:41;;;;;;;;;;;17.90;99.90;;;;;;5048160;28;19924;-85
2021/07/23 06:43:07;;;;;;;;;;;18.00;99.90;;;;;;5010409;28;19921;-85
2021/07/23 06:45:33;;;;;;;;;;;18.00;99.90;;;;;;5048588;28;19928;-84
2021/07/23 06:47:58;;;;;;;;;;;18.00;99.90;;;;;;5016420;28;20427;-85
2021/07/23 06:50:24;;;;;;;;;;;18.10;99.90;;;;;;5012842;28;19921;-85
2021/07/23 06:52:50;;;;;;;;;;;18.10;99.90;;;;;;5016501;28;19921;-85
2021/07/23 06:55:15;;;;;;;;;;;18.10;99.90;;;;;;5015922;28;19970;-86
2021/07/23 06:57:41;;;;;;;;;;;18.10;99.90;;;;;;5047021;28;19925;-85
2021/07/23 07:00:07;;;;;;;;;;;18.10;99.90;;;;;;5012342;28;19990;-85
2021/07/23 07:02:33;;;;;;;;;;;18.10;99.90;;;;;;5026329;28;20695;-85
2021/07/23 07:04:58;;;;;;;;;;;18.10;99.90;;;;;;5043114;28;20012;-84
2021/07/23 07:07:24;;;;;;;;;;;18.20;99.90;;;;;;5030480;28;19963;-86
2021/07/23 07:09:51;;;;;;;;;;;18.20;99.90;;;;;;5033398;28;19929;-85
2021/07/23 07:12:17;;;;;;;;;;;18.20;99.90;;;;;;5029467;28;20455;-85
2021/07/23 07:14:42;;;;;;;;;;;18.10;99.90;;;;;;5050557;28;20011;-85
2021/07/23 07:17:08;;;;;;;;;;;18.10;99.90;;;;;;5047443;28;19924;-84
2021/07/23 07:19:34;;;;;;;;;;;18.10;99.90;;;;;;5028721;28;19956;-85
2021/07/23 07:21:59;;;;;;;;;;;18.10;99.90;;;;;;5037855;28;19928;-84
2021/07/23 07:24:25;;;;;;;;;;;18.10;99.90;;;;;;5048388;28;20399;-84
2021/07/23 07:26:52;;;;;;;;;;;18.10;99.90;;;;;;5046822;28;19920;-86
2021/07/23 07:29:18;;;;;;;;;;;18.20;99.90;;;;;;5021838;28;19925;-84
2021/07/23 07:31:45;;;;;;;;;;;18.20;99.90;;;;;;5033538;28;19974;-85
2021/07/23 07:34:11;;;;;;;;;;;18.20;99.90;;;;;;5048288;28;19929;-85
2021/07/23 07:36:37;;;;;;;;;;;18.20;99.90;;;;;;5048561;28;19921;-84
2021/07/23 07:39:04;;;;;;;;;;;18.20;99.90;;;;;;5068844;28;20372;-86
2021/07/23 07:41:29;;;;;;;;;;;18.20;99.90;;;;;;5068368;28;19927;-85
2021/07/23 07:43:55;;;;;;;;;;;18.20;99.90;;;;;;5052150;28;19925;-86
2021/07/23 07:46:21;;;;;;;;;;;18.20;99.90;;;;;;5062717;28;19921;-85
2021/07/23 07:48:47;;;;;;;;;;;18.20;99.90;;;;;;5043688;28;19921;-85
2021/07/23 07:51:13;;;;;;;;;;;18.20;99.90;;;;;;5044897;28;19935;-85
2021/07/23 07:53:38;;;;;;;;;;;18.30;99.90;;;;;;5044270;28;20403;-86
2021/07/23 07:56:08;;;;;;;;;;;18.30;99.90;;;;;;5050691;28;19988;-85
2021/07/23 07:58:33;;;;;;;;;;;18.30;99.90;;;;;;5031457;28;19925;-85
2021/07/23 08:00:59;;;;;;;;;;;18.40;99.90;;;;;;5016801;28;19920;-85
2021/07/23 08:03:25;;;;;;;;;;;18.40;99.90;;;;;;5040733;28;19952;-85
2021/07/23 08:05:54;;;;;;;;;;;18.40;99.90;;;;;;5043278;28;20306;-85
2021/07/23 08:08:21;;;;;;;;;;;18.50;99.90;;;;;;5042342;28;19925;-86
2021/07/23 08:10:47;;;;;;;;;;;18.50;99.90;;;;;;5030538;28;19935;-85
2021/07/23 08:13:13;;;;;;;;;;;18.50;99.90;;;;;;5031675;28;19935;-84
2021/07/23 08:15:40;;;;;;;;;;;18.50;99.90;;;;;;5047954;28;19973;-85
2021/07/23 08:18:05;;;;;;;;;;;18.50;99.90;;;;;;5030178;28;20408;-85
2021/07/23 08:20:32;;;;;;;;;;;18.60;99.90;;;;;;5027616;28;19967;-86
2021/07/23 08:22:58;;;;;;;;;;;18.60;99.90;;;;;;5027766;28;20297;-85
2021/07/23 08:25:24;;;;;;;;;;;18.60;99.90;;;;;;5042729;28;20418;-86
2021/07/23 08:27:49;;;;;;;;;;;18.60;99.90;;;;;;5047680;28;19924;-85
2021/07/23 08:30:15;;;;;;;;;;;18.60;99.90;;;;;;5050865;28;19929;-85
2021/07/23 08:32:44;;;;;;;;;;;18.70;99.90;;;;;;5050377;28;19927;-84
2021/07/23 08:35:10;;;;;;;;;;;18.70;99.90;;;;;;5051124;28;19925;-85
2021/07/23 08:37:36;;;;;;;;;;;18.80;99.90;;;;;;5019654;28;19924;-85
2021/07/23 08:40:05;;;;;;;;;;;18.80;99.90;;;;;;5025432;28;19991;-85
2021/07/23 08:42:32;;;;;;;;;;;18.90;99.90;;;;;;5047562;28;19932;-85
2021/07/23 08:44:58;;;;;;;;;;;18.90;99.90;;;;;;5016616;28;20565;-85
2021/07/23 08:47:24;;;;;;;;;;;18.90;99.90;;;;;;5020282;28;19924;-85
2021/07/23 08:49:50;;;;;;;;;;;18.90;99.90;;;;;;5030421;28;20406;-85
2021/07/23 08:52:16;;;;;;;;;;;18.90;99.90;;;;;;5023329;28;19932;-85
2021/07/23 08:54:42;;;;;;;;;;;19.00;99.90;;;;;;5041363;28;19928;-84
2021/07/23 08:57:09;;;;;;;;;;;19.00;99.90;;;;;;5044045;28;20493;-85
2021/07/23 08:59:34;;;;;;;;;;;19.10;99.90;;;;;;5046248;28;19946;-84
2021/07/23 09:02:01;;;;;;;;;;;19.10;99.90;;;;;;5033264;28;19924;-85
2021/07/23 09:04:36;;;;;;;;;;;19.20;99.90;;;;;;5030746;28;19960;-85
2021/07/23 09:07:08;;;;;;;;;;;19.20;99.90;;;;;;5029713;28;19921;-85
2021/07/23 09:09:34;;;;;;;;;;;19.20;99.90;;;;;;5047615;28;20008;-85
2021/07/23 09:12:00;;;;;;;;;;;19.20;99.90;;;;;;5026488;28;20018;-86
2021/07/23 09:14:27;;;;;;;;;;;19.30;99.90;;;;;;5034506;28;19924;-85
2021/07/23 09:16:56;;;;;;;;;;;19.30;99.90;;;;;;5048974;28;19924;-85
2021/07/23 09:19:22;;;;;;;;;;;19.30;99.90;;;;;;5030428;28;19967;-85
2021/07/23 09:21:54;;;;;;;;;;;19.30;99.90;;;;;;5031876;28;20307;-86
2021/07/23 09:24:21;;;;;;;;;;;19.30;99.90;;;;;;5033659;28;19952;-85
2021/07/23 09:26:47;;;;;;;;;;;19.40;99.90;;;;;;5031531;28;19929;-85
2021/07/23 09:29:14;;;;;;;;;;;19.40;99.90;;;;;;5048240;28;19946;-85
2021/07/23 09:31:40;;;;;;;;;;;19.40;99.90;;;;;;5034764;28;19925;-85
2021/07/23 09:34:08;;;;;;;;;;;19.40;99.90;;;;;;5052801;28;19924;-85
2021/07/23 09:36:34;;;;;;;;;;;19.40;99.90;;;;;;5033910;28;20380;-85
2021/07/23 09:39:01;;;;;;;;;;;19.40;99.90;;;;;;5020639;28;20334;-85
2021/07/23 09:41:27;;;;;;;;;;;19.40;99.90;;;;;;5064614;28;19970;-84
2021/07/23 09:44:00;;;;;;;;;;;19.40;99.90;;;;;;5053971;28;19924;-88
2021/07/23 09:46:26;;;;;;;;;;;19.40;99.90;;;;;;5045881;28;19924;-86
2021/07/23 09:48:53;;;;;;;;;;;19.40;99.90;;;;;;5025731;28;19925;-86
2021/07/23 09:51:24;;;;;;;;;;;19.40;99.90;;;;;;5035016;28;20483;-86
2021/07/23 09:53:50;;;;;;;;;;;19.30;99.90;;;;;;5035658;28;20392;-86
2021/07/23 09:56:17;;;;;;;;;;;19.30;99.90;;;;;;5066231;28;19975;-87
2021/07/23 09:58:45;;;;;;;;;;;19.30;99.90;;;;;;5035722;28;19924;-86
2021/07/23 10:01:13;;;;;;;;;;;19.30;99.90;;;;;;5034199;28;19991;-87
2021/07/23 10:03:48;;;;;;;;;;;19.30;99.90;;;;;;5050356;28;19928;-85
2021/07/23 10:06:33;;;;;;;;;;;19.30;99.90;;;;;;5037716;28;20296;-86
2021/07/23 10:09:09;;;;;;;;;;;19.30;99.90;;;;;;5051158;28;20405;-92
2021/07/23 10:11:35;;;;;;;;;;;19.30;99.90;;;;;;5047547;28;20283;-86
2021/07/23 10:14:02;;;;;;;;;;;19.30;99.90;;;;;;5031359;28;19925;-86
2021/07/23 10:16:28;;;;;;;;;;;19.30;99.90;;;;;;5033180;28;19948;-88
2021/07/23 10:18:54;;;;;;;;;;;19.30;99.90;;;;;;5032987;28;19924;-86
2021/07/23 10:21:20;;;;;;;;;;;19.30;99.90;;;;;;5023929;28;19984;-86
2021/07/23 10:23:46;;;;;;;;;;;19.30;99.90;;;;;;5034110;28;20369;-86
2021/07/23 10:26:12;;;;;;;;;;;19.30;99.90;;;;;;5016297;28;20016;-86
2021/07/23 10:28:39;;;;;;;;;;;19.30;99.90;;;;;;5039267;28;19928;-86
2021/07/23 10:31:17;;;;;;;;;;;19.40;99.90;;;;;;5032537;28;19928;-87
2021/07/23 10:33:50;;;;;;;;;;;19.40;99.90;;;;;;5046637;28;19944;-86
2021/07/23 10:36:35;;;;;;;;;;;19.40;99.90;;;;;;5034327;28;20011;-86
2021/07/23 10:39:08;;;;;;;;;;;19.50;99.90;;;;;;5041406;28;19917;-89
2021/07/23 10:41:59;;;;;;;;;;;19.50;99.90;;;;;;5046890;28;20485;-87
2021/07/23 10:44:28;;;;;;;;;;;19.50;99.90;;;;;;5044587;28;19920;-87
2021/07/23 10:46:54;;;;;;;;;;;19.50;99.90;;;;;;5052150;28;19924;-86
2021/07/23 10:49:32;;;;;;;;;;;19.50;99.90;;;;;;5052986;28;19925;-86
2021/07/23 10:52:02;;;;;;;;;;;19.50;99.90;;;;;;5051367;28;19921;-87
2021/07/23 10:54:32;;;;;;;;;;;19.60;99.90;;;;;;5057984;28;20019;-88
2021/07/23 10:57:00;;;;;;;;;;;19.60;99.90;;;;;;5048905;28;19925;-86
2021/07/23 10:59:39;;;;;;;;;;;19.60;99.90;;;;;;5039065;28;20403;-86
2021/07/23 11:02:04;;;;;;;;;;;19.60;99.90;;;;;;5030217;28;20311;-87
2021/07/23 11:04:30;;;;;;;;;;;19.60;99.90;;;;;;5037475;28;19925;-87
2021/07/23 11:07:03;;;;;;;;;;;19.50;99.90;;;;;;5033127;28;20376;-86
2021/07/23 11:09:31;;;;;;;;;;;19.50;99.90;;;;;;5028533;28;19929;-87
2021/07/23 11:12:15;;;;;;;;;;;19.50;99.90;;;;;;5036268;28;19971;-86
2021/07/23 11:14:41;;;;;;;;;;;19.50;99.90;;;;;;5042193;28;19921;-86
2021/07/23 11:17:08;;;;;;;;;;;19.50;99.90;;;;;;5017616;28;19925;-87
2021/07/23 11:19:34;;;;;;;;;;;19.50;99.90;;;;;;5042612;28;20372;-85
2021/07/23 11:22:02;;;;;;;;;;;19.50;99.90;;;;;;5017154;28;22207;-86
2021/07/23 11:24:34;;;;;;;;;;;19.50;99.90;;;;;;5060432;28;19921;-86
2021/07/23 11:27:00;;;;;;;;;;;19.50;99.90;;;;;;5036204;28;19932;-85
2021/07/23 11:29:30;;;;;;;;;;;19.50;99.90;;;;;;5024036;28;20393;-86
2021/07/23 11:32:09;;;;;;;;;;;19.40;99.90;;;;;;5042706;28;19932;-86
2021/07/23 11:34:41;;;;;;;;;;;19.50;99.90;;;;;;5027704;28;19925;-86
2021/07/23 11:37:17;;;;;;;;;;;19.50;99.90;;;;;;5013873;28;19932;-87
2021/07/23 11:40:00;;;;;;;;;;;19.40;99.90;;;;;;5011856;28;19936;-88
2021/07/23 11:42:26;;;;;;;;;;;19.50;99.90;;;;;;5038588;28;19960;-88
2021/07/23 11:44:53;;;;;;;;;;;19.50;99.90;;;;;;5045548;28;19925;-88
2021/07/23 11:47:32;;;;;;;;;;;19.40;99.90;;;;;;5036880;28;19925;-87
2021/07/23 11:50:12;;;;;;;;;;;19.40;99.90;;;;;;5042176;28;19964;-86
2021/07/23 11:52:38;;;;;;;;;;;19.40;99.90;;;;;;5048522;28;20399;-87
2021/07/23 11:55:05;;;;;;;;;;;19.40;99.90;;;;;;5026097;28;19931;-86
2021/07/23 11:57:35;;;;;;;;;;;19.40;99.90;;;;;;5048722;28;20406;-87
2021/07/23 12:00:02;;;;;;;;;;;19.50;99.90;;;;;;5017156;28;19974;-88
2021/07/23 12:02:28;;;;;;;;;;;19.40;99.90;;;;;;5033010;28;19927;-87
2021/07/23 12:05:10;;;;;;;;;;;19.40;99.90;;;;;;5016747;28;20028;-86
2021/07/23 12:07:37;;;;;;;;;;;19.40;99.90;;;;;;5015887;28;19931;-87
2021/07/23 12:10:04;;;;;;;;;;;19.40;99.90;;;;;;5036293;28;20376;-87
2021/07/23 12:12:30;;;;;;;;;;;19.40;99.90;;;;;;5029473;28;19924;-87
2021/07/23 12:15:03;;;;;;;;;;;19.40;99.90;;;;;;5028529;28;19926;-87
2021/07/23 12:17:29;;;;;;;;;;;19.40;99.90;;;;;;5035833;28;19925;-87
2021/07/23 12:19:55;;;;;;;;;;;19.40;99.90;;;;;;5052373;28;19950;-87
2021/07/23 12:22:21;;;;;;;;;;;19.40;99.90;;;;;;5035405;28;19920;-86
2021/07/23 12:24:46;;;;;;;;;;;19.40;99.90;;;;;;5038422;28;19924;-86
2021/07/23 12:27:22;;;;;;;;;;;19.40;99.90;;;;;;5025908;28;19924;-86
2021/07/23 12:29:48;;;;;;;;;;;19.40;99.90;;;;;;5040841;28;20443;-88
2021/07/23 12:32:15;;;;;;;;;;;19.40;99.90;;;;;;5023270;28;20011;-85
2021/07/23 12:34:41;;;;;;;;;;;19.40;99.90;;;;;;5031990;28;19931;-85
2021/07/23 12:37:14;;;;;;;;;;;19.40;99.90;;;;;;5039493;28;20440;-84
2021/07/23 12:39:56;;;;;;;;;;;19.40;99.90;;;;;;5039864;28;20006;-86
2021/07/23 12:42:23;;;;;;;;;;;19.40;99.90;;;;;;5043597;28;20394;-85
2021/07/23 12:44:49;;;;;;;;;;;19.40;99.90;;;;;;5034378;28;19928;-84
2021/07/23 12:47:21;;;;;;;;;;;19.50;99.90;;;;;;5035186;28;19924;-84
2021/07/23 12:49:50;;;;;;;;;;;19.50;99.90;;;;;;5036670;28;19936;-84
2021/07/23 12:52:16;;;;;;;;;;;19.50;99.90;;;;;;5040911;28;19925;-85
2021/07/23 12:54:43;;;;;;;;;;;19.50;99.90;;;;;;5038755;28;19921;-85
2021/07/23 12:57:24;;;;;;;;;;;19.50;99.90;;;;;;5040393;28;19944;-85
2021/07/23 12:59:50;;;;;;;;;;;19.60;99.90;;;;;;5048485;28;19921;-85
2021/07/23 13:02:17;;;;;;;;;;;19.70;99.90;;;;;;5050807;28;20395;-84
2021/07/23 13:04:43;;;;;;;;;;;19.70;99.90;;;;;;5051041;28;19924;-85
2021/07/23 13:07:12;;;;;;;;;;;19.70;99.90;;;;;;5045575;28;19924;-85
2021/07/23 13:09:42;;;;;;;;;;;19.70;99.90;;;;;;5037153;28;19925;-85
2021/07/23 13:12:08;;;;;;;;;;;19.80;99.90;;;;;;5048185;28;19926;-86
2021/07/23 13:14:33;;;;;;;;;;;19.80;99.90;;;;;;5034700;28;20019;-86
2021/07/23 13:17:01;;;;;;;;;;;19.80;99.90;;;;;;5041216;28;20007;-85
2021/07/23 13:19:26;;;;;;;;;;;19.80;99.90;;;;;;5050874;28;19921;-84
2021/07/23 13:21:52;;;;;;;;;;;19.80;99.90;;;;;;5036377;28;19965;-86
2021/07/23 13:24:18;;;;;;;;;;;19.90;99.90;;;;;;5037914;28;20022;-84
2021/07/23 13:26:44;;;;;;;;;;;19.90;99.90;;;;;;5051421;28;20727;-86
2021/07/23 13:29:10;;;;;;;;;;;20.00;99.90;;;;;;5017456;28;20027;-85
2021/07/23 13:31:36;;;;;;;;;;;20.00;99.90;;;;;;5034517;28;19928;-85
2021/07/23 13:34:02;;;;;;;;;;;20.00;99.90;;;;;;5030389;28;19934;-85
2021/07/23 13:36:33;;;;;;;;;;;20.10;99.90;;;;;;5033117;28;19947;-85
2021/07/23 13:39:02;;;;;;;;;;;20.10;99.90;;;;;;5030572;28;19928;-85
2021/07/23 13:41:32;;;;;;;;;;;20.20;99.90;;;;;;5050411;28;19924;-85
2021/07/23 13:43:58;;;;;;;;;;;20.20;99.90;;;;;;5050499;28;19970;-85
2021/07/23 13:46:25;;;;;;;;;;;20.20;99.90;;;;;;5029920;28;20416;-85
2021/07/23 13:48:51;;;;;;;;;;;20.20;99.90;;;;;;5052334;28;20302;-85
2021/07/23 13:51:18;;;;;;;;;;;20.20;99.90;;;;;;5045071;28;20015;-85
2021/07/23 13:53:44;;;;;;;;;;;20.20;99.90;;;;;;5034859;28;20364;-86
2021/07/23 13:56:10;;;;;;;;;;;20.20;99.90;;;;;;5020204;28;19924;-83
2021/07/23 13:58:36;;;;;;;;;;;20.20;99.90;;;;;;5071197;28;20299;-84
2021/07/23 14:01:01;;;;;;;;;;;20.20;99.90;;;;;;5025983;28;19928;-85
2021/07/23 14:03:27;;;;;;;;;;;20.20;99.90;;;;;;5036775;28;19929;-85
2021/07/23 14:05:53;;;;;;;;;;;20.20;99.90;;;;;;5035197;28;20023;-85
2021/07/23 14:08:18;;;;;;;;;;;20.10;99.90;;;;;;5048367;28;19970;-86
2021/07/23 14:10:44;;;;;;;;;;;20.10;99.90;;;;;;5051990;28;20194;-85
2021/07/23 14:13:10;;;;;;;;;;;20.10;99.90;;;;;;5063299;28;19947;-85
2021/07/23 14:15:35;;;;;;;;;;;20.10;99.90;;;;;;5026753;28;19925;-84